Terminal Aerodrome Forecast
Issued by NWS

Current Version | Previous Version | Text Only | Print | Product List | Glossary On
Versions: 1 2 3 4 5 6 7 8 9 10 11 12 13 14 15 16 17 18 19 20
000
FTUS41 KLWX 200107 AAA
TAFMTN
TAF AMD
KMTN 200107Z 2001/2024 00000KT 1/2SM -DZ FG OVC003
     FM200400 VRB03KT 1/2SM -DZ FG OVC003 WS020/23035KT
     FM201500 21006KT 2SM BR BKN008 BKN020
     FM201700 20008KT 4SM BR BKN015 BKN030
     FM201900 19009KT P6SM FEW030 SCT070
      AMD NOT SKED 2002/2012=

USA.gov is the U.S. government's official web portal to all federal, state and local government web resources and services.